Time;durP1;ratioP1;P1;durP2;ratioP2;P2;SDS_P1;SDS_P2;PMS_P1;PMS_P2;Temp;Humidity;BMP_temperature;BMP_pressure;BME280_temperature;BME280_humidity;BME280_pressure;Samples;Min_cycle;Max_cycle;Signal;HPM_P1;HPM_P2
2022/01/04 00:00:21;;;;;;;;;4.00;3.00;;;;;;;;6217942;22;29917;-93
2022/01/04 00:02:46;;;;;;;;;3.00;3.00;;;;;;;;6217485;22;28674;-93
2022/01/04 00:05:12;;;;;;;;;2.50;2.50;;;;;;;;6114969;23;28319;-92
2022/01/04 00:07:37;;;;;;;;;3.00;3.00;;;;;;;;6217018;22;28683;-94
2022/01/04 00:10:03;;;;;;;;;5.25;4.00;;;;;;;;6217091;22;29607;-94
2022/01/04 00:15:13;;;;;;;;;2.75;2.00;;;;;;;;6114485;23;28425;-94
2022/01/04 00:17:38;;;;;;;;;2.67;2.67;;;;;;;;6216650;22;28743;-95
2022/01/04 00:20:04;;;;;;;;;3.75;2.25;;;;;;;;6215965;22;29576;-93
2022/01/04 00:22:30;;;;;;;;;2.25;2.25;;;;;;;;6216382;22;28598;-93
2022/01/04 00:24:55;;;;;;;;;2.00;2.00;;;;;;;;6217313;22;28241;-94
2022/01/04 00:27:20;;;;;;;;;1.00;1.00;;;;;;;;6217130;22;28631;-93
2022/01/04 00:29:46;;;;;;;;;1.33;1.33;;;;;;;;6217531;22;30598;-93
2022/01/04 00:32:11;;;;;;;;;1.00;1.00;;;;;;;;6218317;22;28570;-92
2022/01/04 00:34:36;;;;;;;;;0.00;0.00;;;;;;;;6218038;22;28213;-92
2022/01/04 00:37:01;;;;;;;;;2.00;2.00;;;;;;;;6116669;23;28166;-93
2022/01/04 00:39:27;;;;;;;;;2.00;1.00;;;;;;;;6220412;22;30868;-94
2022/01/04 00:41:52;;;;;;;;;0.25;0.25;;;;;;;;6219626;22;28955;-92
2022/01/04 00:44:17;;;;;;;;;0.33;0.33;;;;;;;;6220153;22;28215;-94
2022/01/04 00:46:43;;;;;;;;;0.00;0.00;;;;;;;;6218372;22;28803;-91
2022/01/04 00:49:11;;;;;;;;;0.00;0.00;;;;;;;;6218952;22;29578;-94
2022/01/04 00:51:44;;;;;;;;;1.00;1.00;;;;;;;;6216825;22;29421;-93
2022/01/04 00:54:10;;;;;;;;;0.00;0.00;;;;;;;;6217697;22;27756;-94
2022/01/04 00:56:36;;;;;;;;;1.50;0.00;;;;;;;;6268657;22;28358;-94
2022/01/04 00:59:02;;;;;;;;;1.00;0.00;;;;;;;;6273582;22;29988;-94
2022/01/04 01:01:27;;;;;;;;;0.00;0.00;;;;;;;;6275809;22;28728;-93
2022/01/04 01:03:53;;;;;;;;;0.00;0.00;;;;;;;;6301721;22;28442;-93
2022/01/04 01:06:19;;;;;;;;;0.00;0.00;;;;;;;;6274066;22;29133;-95
2022/01/04 01:08:44;;;;;;;;;0.00;0.00;;;;;;;;6274309;22;30690;-94
2022/01/04 01:11:10;;;;;;;;;0.50;0.50;;;;;;;;6275104;22;28685;-94
2022/01/04 01:13:35;;;;;;;;;0.00;0.00;;;;;;;;6274975;22;28368;-93
2022/01/04 01:16:00;;;;;;;;;0.75;0.00;;;;;;;;6275313;22;28450;-93
2022/01/04 01:18:26;;;;;;;;;0.00;0.00;;;;;;;;6284134;22;29573;-94
2022/01/04 01:20:51;;;;;;;;;0.00;0.00;;;;;;;;6281584;22;28677;-94
2022/01/04 01:23:17;;;;;;;;;0.00;0.00;;;;;;;;6280703;22;28273;-93
2022/01/04 01:25:42;;;;;;;;;0.00;0.00;;;;;;;;6279260;22;28206;-94
2022/01/04 01:28:07;;;;;;;;;0.00;0.00;;;;;;;;6281393;22;29641;-93
2022/01/04 01:30:36;;;;;;;;;0.00;0.00;;;;;;;;6277762;22;28365;-93
2022/01/04 01:33:02;;;;;;;;;0.25;0.25;;;;;;;;6278024;22;28325;-94
2022/01/04 01:35:27;;;;;;;;;2.00;0.50;;;;;;;;6277729;22;28278;-94
2022/01/04 01:37:52;;;;;;;;;0.00;0.00;;;;;;;;6277410;22;29641;-93
2022/01/04 01:40:17;;;;;;;;;0.00;0.00;;;;;;;;6278266;22;28728;-94
2022/01/04 01:42:43;;;;;;;;;0.75;0.75;;;;;;;;6277134;22;27803;-94
2022/01/04 01:45:10;;;;;;;;;5.50;5.50;;;;;;;;6277958;22;28931;-94
2022/01/04 01:47:38;;;;;;;;;6.75;5.00;;;;;;;;6275851;22;30019;-94
2022/01/04 01:50:04;;;;;;;;;6.75;6.75;;;;;;;;6275133;22;28476;-94
2022/01/04 01:52:29;;;;;;;;;6.75;5.00;;;;;;;;6273144;22;28311;-93
2022/01/04 01:54:54;;;;;;;;;6.00;6.00;;;;;;;;6273964;22;28623;-94
2022/01/04 01:57:19;;;;;;;;;6.50;5.25;;;;;;;;6274169;22;29682;-93
2022/01/04 01:59:45;;;;;;;;;4.67;4.67;;;;;;;;6273487;22;28509;-93
2022/01/04 02:02:10;;;;;;;;;6.00;5.67;;;;;;;;6272495;22;28505;-94
2022/01/04 02:04:35;;;;;;;;;5.00;3.00;;;;;;;;6272280;22;28596;-94
2022/01/04 02:07:00;;;;;;;;;4.67;4.00;;;;;;;;6298186;22;29816;-94
2022/01/04 02:09:26;;;;;;;;;4.50;3.75;;;;;;;;6271702;22;28568;-94
2022/01/04 02:11:53;;;;;;;;;3.00;3.00;;;;;;;;6272327;22;28437;-94
2022/01/04 02:14:19;;;;;;;;;3.00;2.50;;;;;;;;6271498;22;28782;-95
2022/01/04 02:16:44;;;;;;;;;3.00;2.00;;;;;;;;6272990;22;29639;-95
2022/01/04 02:19:09;;;;;;;;;2.67;2.67;;;;;;;;6273512;22;29374;-93
2022/01/04 02:21:35;;;;;;;;;1.50;1.50;;;;;;;;6271698;22;28224;-93
2022/01/04 02:24:01;;;;;;;;;3.00;3.00;;;;;;;;6299960;22;28271;-92
2022/01/04 02:26:29;;;;;;;;;2.00;2.00;;;;;;;;6273046;22;29576;-93
2022/01/04 02:28:54;;;;;;;;;3.25;2.00;;;;;;;;6276092;22;29399;-93
2022/01/04 02:31:21;;;;;;;;;2.00;2.00;;;;;;;;6274117;22;28201;-92
2022/01/04 02:33:46;;;;;;;;;1.00;1.00;;;;;;;;6272320;22;28635;-93
2022/01/04 02:36:11;;;;;;;;;2.00;2.00;;;;;;;;6276327;22;29986;-94
2022/01/04 02:38:37;;;;;;;;;1.00;1.00;;;;;;;;6273447;22;28369;-93
2022/01/04 02:41:02;;;;;;;;;1.50;1.50;;;;;;;;6300572;22;28250;-93
2022/01/04 02:43:28;;;;;;;;;2.50;1.00;;;;;;;;6274689;22;28474;-93
2022/01/04 02:45:53;;;;;;;;;5.50;2.00;;;;;;;;6273887;22;29868;-92
2022/01/04 02:48:18;;;;;;;;;2.00;1.50;;;;;;;;6272792;22;28492;-94
2022/01/04 02:50:43;;;;;;;;;1.75;1.75;;;;;;;;6274741;22;28297;-94
2022/01/04 02:53:09;;;;;;;;;3.00;2.00;;;;;;;;6274355;22;28484;-94
2022/01/04 02:55:34;;;;;;;;;2.00;2.00;;;;;;;;6250259;22;30002;-95
2022/01/04 02:57:59;;;;;;;;;2.50;2.50;;;;;;;;6251144;22;29677;-93
2022/01/04 03:00:25;;;;;;;;;2.00;2.00;;;;;;;;6251759;22;28389;-94
2022/01/04 03:02:51;;;;;;;;;2.00;1.00;;;;;;;;6251612;22;28454;-93
2022/01/04 03:05:17;;;;;;;;;3.25;3.25;;;;;;;;6250825;22;29834;-94
2022/01/04 03:07:42;;;;;;;;;2.00;2.00;;;;;;;;6250803;22;29130;-95
2022/01/04 03:10:08;;;;;;;;;1.00;1.00;;;;;;;;6251499;22;28288;-94
2022/01/04 03:12:34;;;;;;;;;3.25;2.00;;;;;;;;6249997;22;28607;-93
2022/01/04 03:15:00;;;;;;;;;1.75;1.00;;;;;;;;6247248;22;29834;-94
2022/01/04 03:17:25;;;;;;;;;1.00;1.00;;;;;;;;6246609;22;28498;-93
2022/01/04 03:19:50;;;;;;;;;2.25;1.00;;;;;;;;6247593;22;28375;-93
2022/01/04 03:22:16;;;;;;;;;1.00;1.00;;;;;;;;6247624;22;28284;-94
2022/01/04 03:24:41;;;;;;;;;3.25;0.25;;;;;;;;6246472;22;30700;-94
2022/01/04 03:27:06;;;;;;;;;3.00;1.33;;;;;;;;6247350;22;28844;-92
2022/01/04 03:29:31;;;;;;;;;1.75;1.75;;;;;;;;6246863;22;28460;-95
2022/01/04 03:31:58;;;;;;;;;2.00;1.00;;;;;;;;6246644;22;28706;-94
2022/01/04 03:34:23;;;;;;;;;2.75;1.00;;;;;;;;6246261;22;29929;-95
2022/01/04 03:36:49;;;;;;;;;2.25;2.00;;;;;;;;6246687;22;28438;-95
2022/01/04 03:39:14;;;;;;;;;2.00;1.00;;;;;;;;6246492;22;28283;-95
2022/01/04 03:41:41;;;;;;;;;1.00;1.00;;;;;;;;6246796;22;29229;-94
2022/01/04 03:44:07;;;;;;;;;1.50;1.50;;;;;;;;6249085;22;30650;-95
2022/01/04 03:46:32;;;;;;;;;0.00;0.00;;;;;;;;6247813;22;28603;-94
2022/01/04 03:48:57;;;;;;;;;0.00;0.00;;;;;;;;6247438;22;28240;-94
2022/01/04 03:51:23;;;;;;;;;0.00;0.00;;;;;;;;6246709;22;28625;-94
2022/01/04 03:53:48;;;;;;;;;1.00;1.00;;;;;;;;6144723;23;28507;-95
2022/01/04 03:56:14;;;;;;;;;2.00;1.00;;;;;;;;6273839;22;29493;-94
2022/01/04 03:58:39;;;;;;;;;0.00;0.00;;;;;;;;6274165;22;28220;-94
2022/01/04 04:01:04;;;;;;;;;2.00;1.00;;;;;;;;6273581;22;28621;-94
2022/01/04 04:03:30;;;;;;;;;2.00;1.00;;;;;;;;6272714;22;29707;-93
2022/01/04 04:05:55;;;;;;;;;1.00;0.00;;;;;;;;6273376;22;28911;-94
2022/01/04 04:08:20;;;;;;;;;0.00;0.00;;;;;;;;6273213;22;28285;-94
2022/01/04 04:10:46;;;;;;;;;0.00;0.00;;;;;;;;6273117;22;28414;-94
2022/01/04 04:13:12;;;;;;;;;1.00;1.00;;;;;;;;6274464;22;30027;-95
2022/01/04 04:15:40;;;;;;;;;0.00;0.00;;;;;;;;6274294;22;28749;-93
2022/01/04 04:18:06;;;;;;;;;2.00;0.00;;;;;;;;6273952;22;28203;-94
2022/01/04 04:20:31;;;;;;;;;0.00;0.00;;;;;;;;6275046;22;28281;-94
2022/01/04 04:22:56;;;;;;;;;0.00;0.00;;;;;;;;6283914;22;29687;-94
2022/01/04 04:25:21;;;;;;;;;0.00;0.00;;;;;;;;6289642;22;28393;-93
2022/01/04 04:27:47;;;;;;;;;0.00;0.00;;;;;;;;6290308;22;28370;-93
2022/01/04 04:30:12;;;;;;;;;0.00;0.00;;;;;;;;6292078;22;28909;-94
2022/01/04 04:32:37;;;;;;;;;1.00;0.00;;;;;;;;6317594;22;28281;-94
2022/01/04 04:35:03;;;;;;;;;0.00;0.00;;;;;;;;6295455;22;28413;-95
2022/01/04 04:37:28;;;;;;;;;0.00;0.00;;;;;;;;6296686;22;27786;-93
2022/01/04 04:39:53;;;;;;;;;0.00;0.00;;;;;;;;6321413;22;28585;-94
2022/01/04 04:42:19;;;;;;;;;0.00;0.00;;;;;;;;6296243;22;29923;-93
2022/01/04 04:44:45;;;;;;;;;0.00;0.00;;;;;;;;6322862;22;28394;-91
2022/01/04 04:47:10;;;;;;;;;0.00;0.00;;;;;;;;6287417;22;28100;-93
2022/01/04 04:49:35;;;;;;;;;0.00;0.00;;;;;;;;6277640;22;28551;-93
2022/01/04 04:52:01;;;;;;;;;1.00;1.00;;;;;;;;6275354;22;29592;-93
2022/01/04 04:54:26;;;;;;;;;0.00;0.00;;;;;;;;6276565;22;29489;-93
2022/01/04 04:56:52;;;;;;;;;0.00;0.00;;;;;;;;6276782;22;28331;-94
2022/01/04 04:59:17;;;;;;;;;0.00;0.00;;;;;;;;6275224;22;28349;-96
2022/01/04 05:01:43;;;;;;;;;0.00;0.00;;;;;;;;6273389;22;29551;-94
2022/01/04 05:04:08;;;;;;;;;0.00;0.00;;;;;;;;6273722;22;28892;-94
2022/01/04 05:06:33;;;;;;;;;0.00;0.00;;;;;;;;6273833;22;28276;-95
2022/01/04 05:08:58;;;;;;;;;0.00;0.00;;;;;;;;6299255;22;28361;-95
2022/01/04 05:11:24;;;;;;;;;0.00;0.00;;;;;;;;6273344;22;29994;-94
2022/01/04 05:13:49;;;;;;;;;0.00;0.00;;;;;;;;6273310;22;28491;-96
2022/01/04 05:16:14;;;;;;;;;0.00;0.00;;;;;;;;6275400;22;27838;-94
2022/01/04 05:18:39;;;;;;;;;0.00;0.00;;;;;;;;6272267;22;29335;-93
2022/01/04 05:21:05;;;;;;;;;0.00;0.00;;;;;;;;6271444;22;30706;-94
2022/01/04 05:23:33;;;;;;;;;1.00;0.00;;;;;;;;6272034;22;28473;-95
2022/01/04 05:25:58;;;;;;;;;0.00;0.00;;;;;;;;6272153;22;28258;-93
2022/01/04 05:28:23;;;;;;;;;0.00;0.00;;;;;;;;6271993;22;28378;-93
2022/01/04 05:30:49;;;;;;;;;0.00;0.00;;;;;;;;6297799;22;29696;-93
2022/01/04 05:33:14;;;;;;;;;0.00;0.00;;;;;;;;6297387;22;28735;-94
2022/01/04 05:35:39;;;;;;;;;5.50;2.00;;;;;;;;6271752;22;28412;-94
2022/01/04 05:38:04;;;;;;;;;3.00;3.00;;;;;;;;6297401;22;28450;-93
2022/01/04 05:40:30;;;;;;;;;1.00;1.00;;;;;;;;6272306;22;29841;-94
2022/01/04 05:42:55;;;;;;;;;2.00;2.00;;;;;;;;6272324;22;28415;-94
2022/01/04 05:45:20;;;;;;;;;2.00;2.00;;;;;;;;6299461;22;27831;-94
2022/01/04 05:47:46;;;;;;;;;1.75;1.75;;;;;;;;6271638;22;28417;-94
2022/01/04 05:50:11;;;;;;;;;2.25;1.00;;;;;;;;6272332;22;29713;-93
2022/01/04 05:52:36;;;;;;;;;1.00;1.00;;;;;;;;6271878;22;28680;-92
2022/01/04 05:55:02;;;;;;;;;1.00;1.00;;;;;;;;6270821;22;28309;-94
2022/01/04 05:57:27;;;;;;;;;2.50;2.50;;;;;;;;6271544;22;28937;-93
2022/01/04 05:59:53;;;;;;;;;1.00;0.00;;;;;;;;6273305;22;29850;-95
2022/01/04 06:02:18;;;;;;;;;0.25;0.25;;;;;;;;6274651;22;28709;-93
2022/01/04 06:04:43;;;;;;;;;0.00;0.00;;;;;;;;6272118;22;28378;-93
2022/01/04 06:07:08;;;;;;;;;1.00;1.00;;;;;;;;6272272;22;28447;-92
2022/01/04 06:09:46;;;;;;;;;1.75;1.00;;;;;;;;6275849;22;29909;-95
2022/01/04 06:14:59;;;;;;;;;3.00;3.00;;;;;;;;6305299;22;28445;-92
2022/01/04 06:17:28;;;;;;;;;1.50;0.00;;;;;;;;6276351;22;28508;-92
2022/01/04 06:19:58;;;;;;;;;1.00;1.00;;;;;;;;6276148;22;29917;-93
2022/01/04 06:22:23;;;;;;;;;2.00;1.25;;;;;;;;6275886;22;28932;-93
2022/01/04 06:24:48;;;;;;;;;1.00;1.00;;;;;;;;6303257;22;27690;-90
2022/01/04 06:27:14;;;;;;;;;2.67;0.00;;;;;;;;6276937;22;28497;-91
2022/01/04 06:29:40;;;;;;;;;0.00;0.00;;;;;;;;6273538;22;29546;-91
2022/01/04 06:32:06;;;;;;;;;1.00;1.00;;;;;;;;6273906;22;28858;-92
2022/01/04 06:34:31;;;;;;;;;1.00;1.00;;;;;;;;6271684;22;28560;-93
2022/01/04 06:36:57;;;;;;;;;1.00;1.00;;;;;;;;6273292;22;28640;-89
2022/01/04 06:39:22;;;;;;;;;1.25;0.00;;;;;;;;6273216;22;30220;-84
2022/01/04 06:41:47;;;;;;;;;0.75;0.00;;;;;;;;6272130;22;29436;-89
2022/01/04 06:44:13;;;;;;;;;1.50;0.00;;;;;;;;6273008;22;28327;-92
2022/01/04 06:46:38;;;;;;;;;0.00;0.00;;;;;;;;6272333;22;28449;-92
2022/01/04 06:49:03;;;;;;;;;1.75;0.00;;;;;;;;6272899;22;29740;-91
2022/01/04 06:51:29;;;;;;;;;0.50;0.50;;;;;;;;6272342;22;29604;-91
2022/01/04 06:53:54;;;;;;;;;4.25;1.00;;;;;;;;6272052;22;28459;-92
2022/01/04 06:56:19;;;;;;;;;2.75;1.00;;;;;;;;6245329;22;28490;-91
2022/01/04 06:58:48;;;;;;;;;1.00;1.00;;;;;;;;6246711;22;29567;-95
2022/01/04 07:01:13;;;;;;;;;1.00;1.00;;;;;;;;6250762;22;28673;-92
2022/01/04 07:03:38;;;;;;;;;2.00;1.00;;;;;;;;6252165;22;27748;-93
2022/01/04 07:14:33;;;;;;;;;;;;;;;;;;;;;
2022/01/04 07:23:12;;;;;;;;;2.00;0.75;;;;;;;;6177895;23;28455;-90
2022/01/04 07:29:04;;;;;;;;;0.00;0.00;;;;;;;;6126683;23;28519;-90
2022/01/04 07:31:29;;;;;;;;;0.75;0.50;;;;;;;;6176240;23;29892;-94
2022/01/04 07:33:54;;;;;;;;;1.00;1.00;;;;;;;;6155859;23;27721;-95
2022/01/04 07:36:23;;;;;;;;;1.75;1.00;;;;;;;;6180043;22;28278;-94
2022/01/04 07:38:49;;;;;;;;;3.25;3.00;;;;;;;;6213118;22;28483;-89
2022/01/04 07:41:14;;;;;;;;;5.00;4.00;;;;;;;;6239786;22;28353;-91
2022/01/04 07:44:18;;;;;;;;;3.25;3.00;;;;;;;;6211845;22;28420;-93
2022/01/04 07:46:43;;;;;;;;;2.75;2.50;;;;;;;;6214272;22;28456;-94
2022/01/04 07:49:08;;;;;;;;;3.00;3.00;;;;;;;;6216720;22;28531;-92
2022/01/04 07:51:33;;;;;;;;;7.25;3.00;;;;;;;;6216303;22;29886;-93
2022/01/04 07:53:59;;;;;;;;;2.50;2.50;;;;;;;;6217023;22;28499;-93
2022/01/04 07:56:24;;;;;;;;;2.50;2.50;;;;;;;;6217783;22;28333;-96
2022/01/04 07:58:49;;;;;;;;;2.00;2.00;;;;;;;;6217577;22;28552;-93
2022/01/04 08:01:20;;;;;;;;;3.00;2.00;;;;;;;;6222519;22;29926;-93
2022/01/04 08:03:45;;;;;;;;;2.00;2.00;;;;;;;;6193251;22;28587;-94
2022/01/04 08:06:10;;;;;;;;;3.00;2.00;;;;;;;;6216608;22;27733;-93
2022/01/04 08:08:36;;;;;;;;;7.75;4.75;;;;;;;;6213360;22;29419;-94
2022/01/04 08:11:01;;;;;;;;;1.00;1.00;;;;;;;;6215162;22;30124;-95
2022/01/04 08:13:29;;;;;;;;;2.25;1.25;;;;;;;;6235195;22;29328;-94
2022/01/04 08:15:55;;;;;;;;;2.00;2.00;;;;;;;;6243929;22;28334;-93
2022/01/04 08:18:21;;;;;;;;;2.25;2.00;;;;;;;;6251695;22;27783;-92
2022/01/04 08:20:49;;;;;;;;;3.00;1.50;;;;;;;;6277783;22;28191;-92
2022/01/04 08:23:15;;;;;;;;;1.75;1.75;;;;;;;;6245496;22;28748;-92
2022/01/04 08:25:40;;;;;;;;;3.25;2.00;;;;;;;;6246719;22;28213;-92
2022/01/04 08:28:05;;;;;;;;;2.50;0.00;;;;;;;;6250240;22;28392;-92
2022/01/04 08:30:31;;;;;;;;;1.50;1.00;;;;;;;;6247052;22;29498;-92
2022/01/04 08:32:58;;;;;;;;;2.00;1.50;;;;;;;;6243787;22;28635;-92
2022/01/04 08:35:24;;;;;;;;;3.75;1.00;;;;;;;;6244526;22;27839;-93
2022/01/04 08:37:49;;;;;;;;;1.25;1.25;;;;;;;;6240858;22;28710;-93
2022/01/04 08:40:15;;;;;;;;;2.00;2.00;;;;;;;;6241030;22;29864;-92
2022/01/04 08:42:40;;;;;;;;;5.00;3.25;;;;;;;;6242977;22;28911;-94
2022/01/04 08:45:09;;;;;;;;;2.25;2.25;;;;;;;;6241698;22;28076;-94
2022/01/04 08:47:34;;;;;;;;;3.75;3.00;;;;;;;;6240992;22;28465;-92
2022/01/04 08:49:59;;;;;;;;;5.00;5.00;;;;;;;;6240471;22;30616;-93
2022/01/04 08:52:27;;;;;;;;;19.00;10.00;;;;;;;;6240624;22;28335;-93
2022/01/04 08:54:52;;;;;;;;;8.00;5.50;;;;;;;;6241555;22;27645;-92
2022/01/04 08:57:20;;;;;;;;;3.50;3.50;;;;;;;;6237275;22;28259;-92
2022/01/04 08:59:47;;;;;;;;;3.00;3.00;;;;;;;;6241194;22;30494;-94
2022/01/04 09:02:12;;;;;;;;;4.00;3.00;;;;;;;;6240754;22;28582;-92
2022/01/04 09:04:38;;;;;;;;;5.00;2.50;;;;;;;;6240314;22;28296;-92
2022/01/04 09:07:03;;;;;;;;;4.00;3.00;;;;;;;;6241355;22;28611;-93
2022/01/04 09:09:30;;;;;;;;;3.00;3.00;;;;;;;;6240091;22;29710;-94
2022/01/04 09:11:55;;;;;;;;;2.25;2.00;;;;;;;;6240281;22;28931;-94
2022/01/04 09:19:33;;;;;;;;;9.50;8.00;;;;;;;;6270242;22;28745;-93
2022/01/04 09:21:58;;;;;;;;;5.50;3.75;;;;;;;;6241751;22;28394;-94
2022/01/04 09:24:24;;;;;;;;;2.75;2.75;;;;;;;;6241518;22;28465;-93
2022/01/04 09:26:49;;;;;;;;;2.00;2.00;;;;;;;;6247139;22;28416;-94
2022/01/04 09:29:17;;;;;;;;;3.00;1.00;;;;;;;;6244836;22;29786;-94
2022/01/04 09:31:42;;;;;;;;;2.75;2.75;;;;;;;;6246112;22;28498;-94
2022/01/04 09:34:08;;;;;;;;;3.25;2.25;;;;;;;;6246143;22;27795;-93
2022/01/04 09:36:35;;;;;;;;;1.75;1.00;;;;;;;;6244028;22;28209;-93
2022/01/04 09:39:02;;;;;;;;;2.00;0.00;;;;;;;;6242730;22;30068;-93
2022/01/04 09:41:27;;;;;;;;;1.25;0.00;;;;;;;;6240779;22;29897;-94
2022/01/04 09:43:53;;;;;;;;;2.00;1.00;;;;;;;;6240558;22;28328;-93
2022/01/04 09:46:18;;;;;;;;;1.50;0.50;;;;;;;;6240987;22;28587;-94
2022/01/04 09:48:44;;;;;;;;;0.75;0.75;;;;;;;;6241513;22;31055;-93
2022/01/04 09:51:11;;;;;;;;;1.67;1.00;;;;;;;;6239947;22;28467;-93
2022/01/04 09:53:37;;;;;;;;;1.00;1.00;;;;;;;;6241722;22;27733;-94
2022/01/04 09:56:05;;;;;;;;;3.25;1.50;;;;;;;;6241225;22;28818;-95
2022/01/04 09:58:32;;;;;;;;;3.75;3.75;;;;;;;;6243330;22;30586;-94
2022/01/04 10:00:57;;;;;;;;;6.00;4.00;;;;;;;;6243558;22;28579;-95
2022/01/04 10:03:25;;;;;;;;;10.00;8.00;;;;;;;;6243016;22;27700;-95
2022/01/04 10:05:59;;;;;;;;;9.25;5.00;;;;;;;;6244484;22;28531;-94
2022/01/04 10:08:24;;;;;;;;;9.25;8.00;;;;;;;;6275520;22;31579;-92
2022/01/04 10:10:59;;;;;;;;;5.00;2.00;;;;;;;;6247860;22;28371;-93
2022/01/04 10:13:28;;;;;;;;;6.00;4.25;;;;;;;;6272509;22;27778;-94
2022/01/04 10:15:53;;;;;;;;;8.50;5.00;;;;;;;;6253924;22;28561;-94
2022/01/04 10:18:23;;;;;;;;;12.33;7.33;;;;;;;;6253183;22;29739;-94
2022/01/04 10:20:58;;;;;;;;;11.50;8.25;;;;;;;;6257881;22;28796;-94
2022/01/04 10:23:25;;;;;;;;;12.50;8.50;;;;;;;;6255292;22;27809;-93
2022/01/04 10:25:51;;;;;;;;;8.25;5.00;;;;;;;;6285346;22;28223;-94
2022/01/04 10:28:27;;;;;;;;;10.00;5.00;;;;;;;;6263211;22;29985;-94
2022/01/04 10:30:53;;;;;;;;;8.50;6.75;;;;;;;;6263271;22;28609;-92
2022/01/04 10:33:22;;;;;;;;;3.75;2.50;;;;;;;;6254699;22;27839;-94
2022/01/04 10:35:49;;;;;;;;;8.50;4.00;;;;;;;;6240011;22;28525;-94
2022/01/04 10:38:17;;;;;;;;;2.00;2.00;;;;;;;;6240846;22;29968;-94
2022/01/04 10:40:50;;;;;;;;;5.75;3.00;;;;;;;;6243318;22;28729;-93
2022/01/04 10:43:15;;;;;;;;;2.75;1.75;;;;;;;;6242095;22;28359;-94
2022/01/04 10:45:44;;;;;;;;;3.00;3.00;;;;;;;;6241592;22;28454;-95
2022/01/04 10:48:14;;;;;;;;;8.00;7.25;;;;;;;;6241702;22;29744;-94
2022/01/04 10:50:40;;;;;;;;;8.00;4.00;;;;;;;;6241473;22;28603;-94
2022/01/04 10:53:12;;;;;;;;;3.00;2.00;;;;;;;;6242809;22;28391;-93
2022/01/04 10:55:38;;;;;;;;;2.00;2.00;;;;;;;;6245811;22;28446;-95
2022/01/04 10:58:04;;;;;;;;;2.00;2.00;;;;;;;;6243190;22;29679;-93
2022/01/04 11:00:30;;;;;;;;;1.25;1.00;;;;;;;;6240916;22;28579;-94
2022/01/04 11:02:57;;;;;;;;;2.00;0.75;;;;;;;;6241809;22;28462;-94
2022/01/04 11:05:23;;;;;;;;;0.00;0.00;;;;;;;;6244241;22;28578;-94
2022/01/04 11:07:55;;;;;;;;;2.00;1.00;;;;;;;;6241879;22;29865;-95
2022/01/04 11:10:20;;;;;;;;;3.00;2.00;;;;;;;;6241224;22;28502;-95
2022/01/04 11:12:47;;;;;;;;;2.00;2.00;;;;;;;;6241749;22;28459;-93
2022/01/04 11:15:12;;;;;;;;;2.00;2.00;;;;;;;;6241747;22;28679;-94
2022/01/04 11:17:38;;;;;;;;;6.00;3.00;;;;;;;;6241654;22;29793;-94
2022/01/04 11:20:03;;;;;;;;;1.50;1.00;;;;;;;;6241273;22;28752;-93
2022/01/04 11:22:29;;;;;;;;;4.75;3.00;;;;;;;;6241698;22;28182;-94
2022/01/04 11:24:54;;;;;;;;;3.00;3.00;;;;;;;;6246880;22;29342;-94
2022/01/04 11:27:20;;;;;;;;;1.25;1.25;;;;;;;;6244222;22;29688;-93
2022/01/04 11:29:48;;;;;;;;;3.00;3.00;;;;;;;;6249651;22;28806;-92
2022/01/04 11:32:16;;;;;;;;;5.75;2.25;;;;;;;;6247764;22;28410;-92
2022/01/04 11:34:59;;;;;;;;;5.00;3.00;;;;;;;;6245572;22;28609;-93
2022/01/04 11:37:25;;;;;;;;;2.00;2.00;;;;;;;;6242415;22;30281;-94
2022/01/04 11:39:53;;;;;;;;;4.00;1.00;;;;;;;;6242317;22;28628;-94
2022/01/04 11:42:31;;;;;;;;;5.25;3.75;;;;;;;;6246365;22;27744;-94
2022/01/04 11:44:56;;;;;;;;;2.25;2.25;;;;;;;;6242011;22;28462;-94
2022/01/04 11:47:28;;;;;;;;;1.50;1.50;;;;;;;;6241251;22;29705;-94
2022/01/04 11:50:06;;;;;;;;;1.00;1.00;;;;;;;;6237421;22;28656;-94
2022/01/04 11:52:42;;;;;;;;;1.00;1.00;;;;;;;;6184888;22;28297;-93
2022/01/04 11:55:23;;;;;;;;;2.00;2.00;;;;;;;;6241261;22;29377;-92
2022/01/04 11:57:50;;;;;;;;;5.00;2.75;;;;;;;;6240652;22;29703;-95
2022/01/04 12:00:28;;;;;;;;;4.75;3.50;;;;;;;;6240449;22;28660;-94
2022/01/04 12:03:18;;;;;;;;;0.00;0.00;;;;;;;;6240890;22;28367;-94
2022/01/04 12:06:10;;;;;;;;;3.00;3.00;;;;;;;;6241596;22;28414;-94
2022/01/04 12:08:36;;;;;;;;;2.00;2.00;;;;;;;;6237798;22;29690;-93
2022/01/04 12:11:02;;;;;;;;;5.00;2.00;;;;;;;;6240336;22;28496;-95
2022/01/04 12:13:49;;;;;;;;;6.75;3.00;;;;;;;;6240626;22;27899;-93
2022/01/04 12:16:15;;;;;;;;;1.00;1.00;;;;;;;;6241229;22;28689;-96
2022/01/04 12:18:40;;;;;;;;;2.00;2.00;;;;;;;;6240438;22;29722;-93
2022/01/04 12:21:14;;;;;;;;;2.33;1.00;;;;;;;;6243251;22;29248;-92
2022/01/04 12:23:40;;;;;;;;;3.00;1.25;;;;;;;;6244163;22;28268;-93
2022/01/04 12:26:11;;;;;;;;;4.67;3.33;;;;;;;;6240938;22;28431;-94
2022/01/04 12:28:58;;;;;;;;;4.50;2.00;;;;;;;;6241252;22;28474;-94
2022/01/04 12:31:27;;;;;;;;;2.00;2.00;;;;;;;;6241229;22;28756;-92
2022/01/04 12:34:11;;;;;;;;;4.00;2.00;;;;;;;;6241300;22;28295;-93
2022/01/04 12:36:41;;;;;;;;;3.75;2.75;;;;;;;;6243411;22;28490;-94
2022/01/04 12:45:44;;;;;;;;;3.00;2.25;;;;;;;;6171968;22;29578;-88
2022/01/04 12:48:14;;;;;;;;;2.00;2.00;;;;;;;;6269489;22;28349;-91
2022/01/04 12:50:56;;;;;;;;;;;;;;;;;;;;;
2022/01/04 12:53:40;;;;;;;;;3.75;2.00;;;;;;;;6238060;22;55154;-92
2022/01/04 13:02:33;;;;;;;;;1.00;1.00;;;;;;;;6120318;23;28455;-90
2022/01/04 13:05:55;;;;;;;;;4.50;2.25;;;;;;;;6090445;23;28934;-89
2022/01/04 13:08:27;;;;;;;;;2.25;2.00;;;;;;;;6002827;23;28336;-91
2022/01/04 13:19:42;;;;;;;;;2.00;2.00;;;;;;;;6252582;22;28313;-93
2022/01/04 13:31:43;;;;;;;;;1.25;1.25;;;;;;;;6128192;23;28494;-93
2022/01/04 13:34:19;;;;;;;;;2.00;2.00;;;;;;;;6118439;23;28438;-91
2022/01/04 13:36:54;;;;;;;;;3.50;3.00;;;;;;;;6119047;23;28675;-93
2022/01/04 13:39:25;;;;;;;;;9.00;9.00;;;;;;;;6120012;23;28001;-95
2022/01/04 13:42:05;;;;;;;;;3.25;3.00;;;;;;;;6127239;22;28300;-96
2022/01/04 13:44:33;;;;;;;;;2.75;2.00;;;;;;;;6127154;22;28410;-95
2022/01/04 13:49:48;;;;;;;;;9.00;4.00;;;;;;;;6142422;22;28355;-95
2022/01/04 13:52:26;;;;;;;;;3.25;2.00;;;;;;;;6131550;22;27900;-95
2022/01/04 13:55:05;;;;;;;;;2.50;1.25;;;;;;;;6124978;22;28392;-95
2022/01/04 13:57:42;;;;;;;;;3.25;1.25;;;;;;;;6121246;23;28682;-95
2022/01/04 14:03:29;;;;;;;;;2.00;1.75;;;;;;;;6156215;23;28440;-96
2022/01/04 14:06:07;;;;;;;;;2.00;2.00;;;;;;;;6124865;23;28289;-96
2022/01/04 14:08:48;;;;;;;;;1.00;1.00;;;;;;;;6123649;23;28543;-95
2022/01/04 14:11:34;;;;;;;;;3.00;2.00;;;;;;;;6125564;22;28564;-96
2022/01/04 14:14:19;;;;;;;;;2.75;1.50;;;;;;;;6120258;23;28284;-96
2022/01/04 14:17:04;;;;;;;;;3.00;2.00;;;;;;;;6121915;23;28303;-96
2022/01/04 14:19:33;;;;;;;;;4.00;2.50;;;;;;;;6122514;22;29673;-93
2022/01/04 14:22:05;;;;;;;;;2.50;1.00;;;;;;;;6127187;23;28949;-94
2022/01/04 14:24:53;;;;;;;;;3.75;1.00;;;;;;;;6128180;22;27890;-93
2022/01/04 14:27:28;;;;;;;;;1.00;1.00;;;;;;;;6123881;22;27858;-93
2022/01/04 14:30:11;;;;;;;;;2.25;2.00;;;;;;;;6126743;23;29843;-93
2022/01/04 14:32:48;;;;;;;;;2.00;2.00;;;;;;;;6123687;23;28392;-94
2022/01/04 14:35:15;;;;;;;;;1.25;1.00;;;;;;;;6128795;23;27927;-94
2022/01/04 14:37:47;;;;;;;;;2.00;2.00;;;;;;;;6141454;22;28347;-94
2022/01/04 14:40:21;;;;;;;;;2.25;1.00;;;;;;;;6127994;23;28525;-93
2022/01/04 14:42:58;;;;;;;;;1.50;1.50;;;;;;;;6122413;23;27900;-94
2022/01/04 14:45:32;;;;;;;;;4.25;3.00;;;;;;;;6120720;23;27800;-95
2022/01/04 14:48:09;;;;;;;;;2.25;2.00;;;;;;;;6142759;22;28461;-94
2022/01/04 14:50:40;;;;;;;;;3.00;1.50;;;;;;;;6242921;22;28409;-94
2022/01/04 14:53:27;;;;;;;;;3.00;1.75;;;;;;;;6246007;22;28491;-92
2022/01/04 14:56:05;;;;;;;;;;;;;;;;;;;;;
2022/01/04 17:34:55;;;;;;;;;0.00;0.00;;;;;;;;6238673;22;45299;-90
2022/01/04 17:37:21;;;;;;;;;0.00;0.00;;;;;;;;6218273;22;27859;-90
2022/01/04 17:39:46;;;;;;;;;3.00;1.00;;;;;;;;6229919;22;45325;-91
2022/01/04 17:42:11;;;;;;;;;1.00;1.00;;;;;;;;6263141;22;45315;-90
2022/01/04 17:44:40;;;;;;;;;2.75;1.00;;;;;;;;6248795;22;27828;-90
2022/01/04 17:47:05;;;;;;;;;0.00;0.00;;;;;;;;6240998;22;28540;-91
2022/01/04 17:49:30;;;;;;;;;2.00;0.00;;;;;;;;6240089;22;29881;-91
2022/01/04 17:51:56;;;;;;;;;0.25;0.00;;;;;;;;6241481;22;28521;-90
2022/01/04 17:54:21;;;;;;;;;1.50;1.00;;;;;;;;6267234;22;28169;-89
2022/01/04 17:56:46;;;;;;;;;1.00;1.00;;;;;;;;6268268;22;28489;-91
2022/01/04 17:59:12;;;;;;;;;3.00;0.00;;;;;;;;6247289;22;29884;-90
2022/01/04 18:01:37;;;;;;;;;2.75;1.00;;;;;;;;6278037;22;39515;-90
2022/01/04 18:04:02;;;;;;;;;2.00;1.00;;;;;;;;6272696;22;28510;-90
2022/01/04 18:06:34;;;;;;;;;1.00;1.00;;;;;;;;6240845;22;28723;-91
2022/01/04 18:08:59;;;;;;;;;5.75;1.00;;;;;;;;6241178;22;30021;-91
2022/01/04 18:11:25;;;;;;;;;3.00;1.00;;;;;;;;6240738;22;28434;-92
2022/01/04 18:13:50;;;;;;;;;0.75;0.50;;;;;;;;6234888;22;45238;-90
2022/01/04 18:16:16;;;;;;;;;1.50;0.50;;;;;;;;6242043;22;28194;-91
2022/01/04 18:18:41;;;;;;;;;0.50;0.00;;;;;;;;6266269;22;45228;-93
2022/01/04 18:21:06;;;;;;;;;7.00;1.00;;;;;;;;6221020;22;45266;-89
2022/01/04 18:23:31;;;;;;;;;2.00;2.00;;;;;;;;6221840;22;45187;-90
2022/01/04 18:25:57;;;;;;;;;1.00;1.00;;;;;;;;6239264;22;45576;-90
2022/01/04 18:28:24;;;;;;;;;0.00;0.00;;;;;;;;6221141;22;47413;-91
2022/01/04 18:30:49;;;;;;;;;0.00;0.00;;;;;;;;6221026;22;46003;-91